罗盘
风向 的 风向 270° Base ULM du Sarrat 11/29
风: 9 kt, 3 beaufort

8 kt

3 kt
改变
0 1.000 2.000 3.000 4.000 5.000
CAVOK
METAR LFMK 232100Z AUTO 27009KT CAVOK 19/12 Q1011

METAR Base ULM du Sarrat

Base ULM du Sarrat是Belpech,法国中的小机场。 该机场有一条跑道: 11/29.

这份报告是针对2022年5月23日 23:00, 当地时间在Carcassonne Airport进行的。

机场观察

风向为270°,速度为9 kt。

天气为CAVOK。这意味着在5.000 ft或MSA(最低安全高度)以下(以较高者为准)以下没有云。这也意味着没有观测到积雨云或高耸的积云,可见度为10 km 或者更多或更高。此外,不会有雾,降雨或其他重要天气。

温度和风寒是19 °C。 露点为12 °C,相对湿度为64%。 海平面上的气压为1011 hPa (QNH)。

白天

今天,太阳从06:21升起,在21:18降落。 这适用于Base ULM du Sarrat,世界夏令时可能有所不同。 当地时间与世界标准时间之间的时差为+2 小时。 夏令时目前正在进行中。

公司介绍

我们没有关于这个机场的公司信息。

体会

到Vliegles.nl去找飞行课程,跳伞和其他飞行体验。 浏览页面,了解Base ULM du Sarrat附近所有可用的活动。 你也可以使用搜索功能来寻找你所在地附近的特定飞行课程、跳伞或其他飞行体验。

您会帮助我们保持Metar-Taf.com正常运行吗?
您的贡献有助于网站的进一步开发并支付费用。

没有更多广告

您是捐款5美元还是更多?然后,我们将永远不会再向您展示广告,这是我们永恒的感谢!
捐赠前先登录

跑道

Id 标题 侧风 逆风
11/29 110°-290° 3 kt 8 kt

逆风成分最大的方向会被突出显示,并用于横风计算。 这并不一定意味着这个方向在使用。

温度 & 天气

温度 19 °C
露点 12 °C
相对湿度 64%
Kp-index 0  

公司介绍

新增公司

下载我们的应用程序

在您的手机和平板电脑上轻松访问所有航空天气。
有许多网站上没有的功能,如离线支持和个人机场列表。

Studio Eveline

Benalmádena
España

我们和第三方通过cookies跟踪您在我们网站上的上网行为。如果您继续,我们认为您同意我们的cookie政策。 了解更多